This is the latest recevied weather packets stored in our database for station/object KJ5BMY-13. If no packets are shown the sender has not sent any weather packets the latest 10 day(s).
| Time | Temp. | Humidity | Pressure | Rain* | Wind** | Luminosity | Snow |
|---|---|---|---|---|---|---|---|
| 1777478683 | 15° C | 93% | 1018 hPa | 0 mm | - | - | - |
| 1777478379 | 15° C | 93% | 1018.4 hPa | 0 mm | - | - | - |
| 1777478076 | 15.56° C | 93% | 1018.5 hPa | 0 mm | - | - | - |
| 1777477772 | 15.56° C | 93% | 1017.9 hPa | 1.27 mm | - | - | - |
| 1777477468 | 15° C | 92% | 1017.4 hPa | 10.16 mm | - | - | - |
| 1777477165 | 14.44° C | 91% | 1017.2 hPa | 21.59 mm | - | - | - |
| 1777476861 | 15.56° C | 88% | 1018.5 hPa | 10.67 mm | - | - | - |
| 1777476560 | 15.56° C | 85% | 1018.6 hPa | 0 mm | - | - | - |
| 1777476255 | 15.56° C | 84% | 1018.3 hPa | 0 mm | - | - | - |
| 1777475951 | 16.11° C | 83% | 1018.4 hPa | 0 mm | - | - | - |
| 1777475648 | 16.11° C | 82% | 1018.1 hPa | 0 mm | - | - | - |
| 1777475344 | 16.11° C | 82% | 1018.4 hPa | 0 mm | - | - | - |
| 1777475039 | 16.11° C | 82% | 1018.2 hPa | 0 mm | - | - | - |
| 1777474736 | 16.11° C | 82% | 1018 hPa | 0 mm | - | - | - |
| 1777474432 | 16.11° C | 82% | 1017.9 hPa | 0 mm | - | - | - |
| 1777474128 | 16.11° C | 82% | 1017.4 hPa | 0 mm | - | - | - |
| 1777473827 | 15.56° C | 82% | 1017.5 hPa | 0 mm | - | - | - |
| 1777473523 | 15.56° C | 82% | 1017.8 hPa | 0 mm | - | - | - |
| 1777473219 | 15.56° C | 82% | 1018 hPa | 0 mm | - | - | - |
| 1777472915 | 15.56° C | 82% | 1017.7 hPa | 0 mm | - | - | - |
| 1777472612 | 15.56° C | 82% | 1017.7 hPa | 0 mm | - | - | - |
* Rain latest hour (hover to see other rain measurements)
** Current wind speed in m/s (hover to see current wind gust speed)